Dienstweiler (461 m) : 23.11.2017
Datum Zeit
(MEZ)
Temp.
(2 m)
Temp.
(20 cm)
Luftfeuchte Blattnässe Nieder-
schlag
Wind Zeit
(MEZ)
[°C] [°C] [%] [%] [mm] [m/s]
23.11.2017 09:40 9.2 8.6 95 33 0.0 3.7 09:40
  09:35 9.1 8.5 96 34 0.0 3.4 09:35
  09:30 9.0 8.4 97 34 0.0 4.3 09:30
  09:25 8.9 8.2 97 35 0.0 3.1 09:25
  09:20 8.9 8.2 97 35 0.0 3.8 09:20
  09:15 8.7 8.1 99 36 0.0 3.3 09:15
  09:10 8.6 7.9 99 38 0.0 3.3 09:10
  09:05 8.6 7.9 99 40 0.0 3.5 09:05
  09:00 8.4 7.8 99 37 0.0 2.6 09:00
  08:55 8.4 7.8 99 37 0.0 2.8 08:55
  08:50 8.4 7.8 99 38 0.0 3.4 08:50
  08:45 8.4 7.7 99 40 0.0 3.6 08:45
  08:40 8.4 7.7 99 39 0.0 3.8 08:40
  08:35 8.3 7.6 100 40 0.0 3.9 08:35
  08:30 8.2 7.5 100 39 0.0 3.2 08:30
  08:25 8.2 7.4 100 39 0.0 3.1 08:25
  08:20 8.3 7.6 100 38 0.0 3.6 08:20
  08:15 8.2 7.5 100 39 0.0 3.8 08:15
  08:10 8.0 7.3 100 40 0.0 3.7 08:10
  08:05 8.0 7.2 100 40 0.0 3.8 08:05
  08:00 7.8 6.9 100 42 0.0 3.6 08:00
  07:55 7.7 6.7 100 42 0.0 3.6 07:55
  07:50 7.6 6.6 100 43 0.0 3.6 07:50
  07:45 7.4 6.4 100 44 0.1 3.3 07:45
23.11.2017 07:40 7.3 6.4 100 45 0.0 2.9 07:40
  07:35 7.4 6.4 100 45 0.0 3.3 07:35
  07:30 7.2 6.2 100 47 0.0 2.9 07:30
  07:25 7.1 6.2 100 47 0.0 3.0 07:25
  07:20 7.0 6.0 100 48 0.0 3.0 07:20
  07:15 6.8 5.9 100 49 0.0 2.4 07:15
  07:10 6.8 5.8 100 50 0.0 2.8 07:10
  07:05 6.7 5.7 100 52 0.0 2.2 07:05
  07:00 6.8 5.8 100 51 0.0 2.5 07:00
  06:55 6.6 5.5 100 54 0.0 1.7 06:55
  06:50 6.6 5.6 100 53 0.0 2.1 06:50
  06:45 6.7 5.7 100 53 0.0 2.0 06:45
  06:40 6.8 5.8 100 53 0.1 2.5 06:40
  06:35 6.7 5.7 100 54 0.0 2.4 06:35
  06:30 6.7 5.7 100 55 0.0 2.6 06:30
  06:25 6.5 5.6 100 57 0.0 2.4 06:25
  06:20 6.7 5.7 100 55 0.0 2.8 06:20
  06:15 6.4 5.3 100 63 0.0 2.1 06:15
  06:10 6.4 5.4 100 64 0.0 1.7 06:10
  06:05 6.4 5.4 100 64 0.0 2.1 06:05
  06:00 6.3 5.3 100 65 0.0 2.1 06:00
  05:55 6.3 5.3 100 67 0.0 2.0 05:55
  05:50 6.4 5.3 100 64 0.1 1.9 05:50
  05:45 6.5 5.4 100 60 0.0 2.4 05:45
23.11.2017 05:40 6.3 5.3 100 64 0.0 2.2 05:40
  05:35 6.2 5.0 100 68 0.0 1.9 05:35
  05:30 6.1 5.1 100 68 0.0 1.8 05:30
  05:25 5.8 4.6 100 79 0.0 1.7 05:25
  05:20 5.8 4.6 100 83 0.0 1.3 05:20
  05:15 5.8 4.6 100 77 0.0 1.6 05:15
  05:10 5.8 4.6 100 79 0.0 1.5 05:10
  05:05 5.8 4.8 100 71 0.0 2.0 05:05
  05:00 5.9 4.9 100 65 0.0 2.3 05:00
  04:55 5.8 4.7 100 68 0.0 2.0 04:55
  04:50 5.7 4.6 100 72 0.0 2.1 04:50
  04:45 5.7 4.6 100 74 0.0 1.9 04:45
  04:40 5.6 4.5 100 77 0.0 1.8 04:40
  04:35 5.6 4.6 100 72 0.0 2.1 04:35
  04:30 5.6 4.5 100 75 0.0 2.2 04:30
  04:25 5.6 4.4 100 80 0.0 1.6 04:25
  04:20 5.6 4.6 100 70 0.0 2.2 04:20
  04:15 5.7 4.6 100 67 0.0 2.3 04:15
  04:10 5.5 4.4 100 75 0.0 2.0 04:10
  04:05 5.5 4.3 100 76 0.0 1.8 04:05
  04:00 5.6 4.5 100 73 0.0 1.7 04:00
  03:55 5.5 4.3 100 76 0.0 1.7 03:55
  03:50 5.6 4.4 100 75 0.0 1.6 03:50
  03:45 5.6 4.4 100 73 0.0 2.0 03:45
23.11.2017 03:40 5.5 4.3 100 74 0.0 1.6 03:40
  03:35 5.5 4.2 100 78 0.0 1.3 03:35
  03:30 5.5 4.2 100 77 0.0 1.4 03:30
  03:25 5.3 4.0 100 84 0.0 1.3 03:25
  03:20 5.4 4.1 100 73 0.0 1.6 03:20
  03:15 5.2 3.8 100 87 0.0 1.3 03:15
  03:10 5.1 3.6 100 94 0.0 0.9 03:10
  03:05 5.1 3.6 100 90 0.0 0.9 03:05
  03:00 5.3 3.9 100 67 0.0 1.5 03:00
  02:55 5.1 3.6 100 83 0.0 0.7 02:55
  02:50 5.0 3.6 100 78 0.0 1.1 02:50
  02:45 5.0 3.6 100 64 0.0 1.3 02:45
  02:40 5.0 3.5 100 63 0.0 1.3 02:40
  02:35 4.9 3.2 100 69 0.0 0.8 02:35
  02:30 5.1 3.3 100 67 0.0 0.6 02:30
  02:25 5.2 3.4 100 54 0.0 0.9 02:25
  02:20 5.0 3.2 100 62 0.0 0.8 02:20
  02:15 5.2 3.2 100 55 0.0 0.8 02:15
  02:10 5.1 3.3 100 53 0.0 0.6 02:10
  02:05 5.2 3.5 100 44 0.0 1.1 02:05
  02:00 5.0 3.3 100 49 0.0 1.0 02:00
  01:55 4.6 2.9 100 66 0.0 0.5 01:55
  01:50 4.7 3.2 100 45 0.0 0.9 01:50
  01:45 4.9 3.3 100 39 0.0 1.1 01:45
23.11.2017 01:40 4.8 3.3 100 39 0.0 0.8 01:40
  01:35 5.2 3.8 100 35 0.0 1.3 01:35
  01:30 5.3 3.9 100 33 0.0 1.5 01:30
  01:25 5.2 3.8 100 34 0.0 1.5 01:25
  01:20 5.1 3.8 100 33 0.0 1.3 01:20
  01:15 5.3 3.9 100 32 0.0 1.6 01:15
  01:10 5.1 3.6 100 32 0.0 1.6 01:10
  01:05 5.2 3.8 100 32 0.0 1.2 01:05
  01:00 5.3 3.9 100 31 0.0 1.8 01:00
  00:55 5.4 3.8 100 31 0.0 1.4 00:55
  00:50 5.4 4.0 100 30 0.0 1.5 00:50
  00:45 5.4 3.8 100 30 0.0 1.3 00:45
  00:40 5.4 3.7 100 30 0.0 1.6 00:40
  00:35 5.5 3.7 100 30 0.0 1.4 00:35
  00:30 5.2 3.3 100 30 0.1 1.3 00:30
  00:25 5.4 3.5 100 30 0.0 0.9 00:25
  00:20 5.4 3.4 100 30 0.0 1.1 00:20
  00:15 5.5 3.4 100 30 0.0 0.8 00:15
  00:10 5.5 3.1 100 30 0.0 0.7 00:10
  00:05 5.7 3.2 100 29 0.0 0.3 00:05
  00:00 5.8 3.6 100 28 0.0 0.6 00:00
22.11.2017 23:55 5.7 3.3 100 28 0.0 0.7 23:55
  23:50 5.5 3.0 100 28 0.0 0.8 23:50
  23:45 5.6 3.0 100 27 0.0 0.6 23:45
  23:40 5.7 3.1 100 27 0.0 0.7 23:40
  23:35 5.6 2.9 100 27 0.0 0.4 23:35
  23:30 5.8 3.0 100 27 0.0 0.4 23:30
  23:25 5.8 3.1 100 27 0.0 0.4 23:25
  23:20 5.7 3.5 100 27 0.0 0.8 23:20
  23:15 5.6 3.4 100 26 0.0 0.8 23:15
  23:10 5.6 3.5 100 26 0.0 0.7 23:10
  23:05 5.6 3.5 100 26 0.0 0.7 23:05
  23:00 5.8 3.8 100 26 0.0 0.8 23:00
  22:55 5.8 3.7 100 26 0.0 0.7 22:55
  22:50 5.7 3.8 100 25 0.0 0.7 22:50
  22:45 5.7 3.5 99 25 0.0 0.7 22:45
  22:40 5.9 3.7 99 25 0.0 1.0 22:40
  22:35 5.9 3.6 99 25 0.0 1.1 22:35
  22:30 5.9 3.8 98 25 0.0 1.0 22:30
  22:25 6.0 4.0 98 24 0.0 0.8 22:25
  22:20 6.1 4.0 99 24 0.0 1.2 22:20
  22:15 6.0 3.9 100 24 0.0 1.2 22:15
  22:10 5.6 3.6 100 25 0.0 1.6 22:10
  22:05 5.7 4.0 99 24 0.0 2.1 22:05
  22:00 5.6 3.9 97 24 0.0 1.6 22:00
22.11.2017 21:55 6.2 4.6 96 23 0.0 1.7 21:55
  21:50 6.1 4.5 96 23 0.0 1.6 21:50
  21:45 6.3 4.5 95 23 0.0 1.6 21:45
  21:40 6.2 4.5 94 23 0.0 1.4 21:40
  21:35 6.4 4.4 93 23 0.0 1.5 21:35
  21:30 6.5 4.3 92 22 0.0 1.3 21:30
  21:25 6.8 4.9 92 22 0.0 1.3 21:25
  21:20 6.7 4.9 93 22 0.0 1.6 21:20
  21:15 6.7 4.5 94 22 0.0 1.6 21:15
  21:10 6.5 4.1 95 22 0.0 1.7 21:10
  21:05 6.3 4.2 95 23 0.0 1.8 21:05
  21:00 6.3 4.3 94 23 0.0 2.1 21:00
  20:55 6.5 4.3 94 22 0.0 2.1 20:55
  20:50 6.5 4.3 93 22 0.0 2.1 20:50
  20:45 6.7 4.3 92 22 0.0 1.9 20:45
  20:40 6.8 4.5 91 22 0.0 1.7 20:40
  20:35 6.9 4.4 90 22 0.0 1.6 20:35
  20:30 7.2 5.1 90 21 0.0 1.3 20:30
  20:25 7.1 5.0 90 21 0.0 1.5 20:25
  20:20 7.1 5.1 91 21 0.0 1.5 20:20
  20:15 7.1 5.1 92 21 0.0 1.6 20:15
  20:10 7.0 5.2 94 21 0.0 1.9 20:10
  20:05 6.7 4.8 97 22 0.0 1.5 20:05
  20:00 6.4 4.3 96 23 0.0 1.7 20:00
22.11.2017 19:55 6.5 4.7 94 22 0.0 1.7 19:55
  19:50 6.8 5.1 94 21 0.0 2.1 19:50
  19:45 6.8 5.1 93 21 0.0 1.9 19:45
  19:40 6.8 5.2 93 21 0.0 1.9 19:40
  19:35 6.9 5.1 92 21 0.0 1.5 19:35
  19:30 7.2 5.5 90 21 0.0 1.6 19:30
  19:25 7.4 5.5 90 21 0.0 1.5 19:25
  19:20 7.4 5.3 91 21 0.0 1.4 19:20
  19:15 7.3 5.2 91 21 0.0 1.0 19:15
  19:10 7.3 5.3 92 21 0.0 1.4 19:10
  19:05 7.3 4.9 92 22 0.0 1.2 19:05
  19:00 7.3 5.0 92 21 0.0 1.1 19:00
  18:55 7.2 4.8 91 22 0.0 1.4 18:55
  18:50 7.4 4.9 91 21 0.0 1.1 18:50
  18:45 7.4 4.7 93 22 0.0 0.8 18:45
  18:40 7.3 4.7 93 22 0.0 0.7 18:40
  18:35 7.3 4.7 94 22 0.0 0.7 18:35
  18:30 7.3 4.4 94 22 0.0 0.6 18:30
  18:25 7.4 4.3 93 22 0.0 0.2 18:25
  18:20 7.5 4.5 93 22 0.0 0.4 18:20
  18:15 7.4 4.6 94 22 0.0 0.7 18:15
  18:10 7.3 4.5 94 22 0.0 0.6 18:10
  18:05 7.3 4.6 95 22 0.0 0.7 18:05
  18:00 7.2 4.8 94 21 0.0 0.9 18:00
22.11.2017 17:55 7.2 4.7 94 21 0.0 0.8 17:55
  17:50 7.4 4.7 93 21 0.0 0.8 17:50
  17:45 7.4 4.9 92 21 0.0 0.8 17:45
  17:40 7.5 4.8 92 20 0.0 0.6 17:40
  17:35 7.6 4.9 92 20 0.0 0.5 17:35
  17:30 7.7 5.1 92 19 0.0 0.7 17:30
  17:25 7.7 5.4 91 19 0.0 0.9 17:25
  17:20 7.8 5.7 90 19 0.0 0.9 17:20
  17:15 8.0 6.3 90 18 0.0 1.4 17:15
  17:10 7.9 6.3 91 18 0.0 1.5 17:10
  17:05 7.9 6.2 91 18 0.0 1.6 17:05
  17:00 8.0 6.3 91 18 0.0 1.6 17:00
  16:55 8.0 6.2 90 18 0.0 1.4 16:55
  16:50 8.2 6.6 90 17 0.0 1.6 16:50
  16:45 8.2 6.5 90 17 0.0 1.8 16:45
  16:40 8.1 6.3 89 17 0.0 1.8 16:40
  16:35 8.4 6.6 88 17 0.0 1.7 16:35
  16:30 8.6 6.5 88 16 0.0 1.5 16:30
  16:25 8.7 6.0 87 16 0.0 0.7 16:25
  16:20 8.8 6.5 86 15 0.0 0.7 16:20
  16:15 8.9 7.3 85 13 0.0 1.2 16:15
  16:10 9.0 7.5 84 13 0.0 1.2 16:10
  16:05 9.2 7.7 83 12 0.0 1.0 16:05
  16:00 9.4 8.0 82 12 0.0 1.1 16:00
22.11.2017 15:55 9.5 8.3 81 12 0.0 1.1 15:55
  15:50 9.6 8.6 81 11 0.0 1.4 15:50
  15:45 9.7 9.0 80 11 0.0 2.0 15:45
  15:40 9.7 9.2 80 11 0.0 2.4 15:40
  15:35 9.7 9.4 80 11 0.0 2.7 15:35
  15:30 9.7 9.5 79 11 0.0 2.7 15:30
  15:25 9.8 9.6 80 11 0.0 2.3 15:25
  15:20 9.8 9.7 80 11 0.0 2.3 15:20
  15:15 9.9 10.0 80 12 0.0 2.3 15:15
  15:10 9.9 10.1 80 12 0.0 2.5 15:10
  15:05 9.9 10.1 80 12 0.0 2.6 15:05
  15:00 10.0 10.2 80 12 0.0 2.6 15:00
  14:55 10.0 10.4 80 12 0.0 2.1 14:55
  14:50 10.1 10.5 80 12 0.0 1.7 14:50
  14:45 10.2 10.3 78 12 0.0 2.0 14:45
  14:40 10.1 10.4 77 12 0.0 3.0 14:40
  14:35 10.1 10.5 77 12 0.0 3.5 14:35
  14:30 10.2 10.7 77 13 0.0 3.1 14:30
  14:25 10.2 10.7 78 13 0.0 2.5 14:25
  14:20 10.1 10.6 78 14 0.0 3.4 14:20
  14:15 10.1 10.6 79 15 0.0 2.9 14:15
  14:10 10.1 10.7 80 15 0.0 3.0 14:10
  14:05 9.9 10.7 80 16 0.0 3.8 14:05
  14:00 10.0 10.8 81 17 0.0 3.3 14:00
22.11.2017 13:55 9.9 10.8 81 18 0.0 3.0 13:55
  13:50 9.9 10.8 82 19 0.0 3.1 13:50
  13:45 9.8 10.7 83 21 0.0 3.2 13:45
  13:40 9.8 10.7 84 23 0.0 2.9 13:40
  13:35 9.6 10.6 85 27 0.0 3.5 13:35
  13:30 9.5 10.5 87 30 0.0 3.7 13:30
  13:25 9.4 10.4 87 32 0.0 3.8 13:25
  13:20 9.4 10.5 88 35 0.0 3.7 13:20
  13:15 9.3 10.4 89 37 0.0 3.2 13:15
  13:10 9.2 10.3 90 39 0.0 4.2 13:10
  13:05 9.2 10.4 92 40 0.0 2.4 13:05
  13:00 9.0 10.2 94 43 0.0 2.2 13:00
  12:55 8.8 10.0 96 46 0.0 2.5 12:55
  12:50 8.6 9.8 98 49 0.0 3.3 12:50
  12:45 8.5 9.9 100 50 0.0 2.4 12:45
  12:40 8.2 9.5 100 52 0.0 2.9 12:40
  12:35 8.1 9.5 100 54 0.0 2.9 12:35
  12:30 7.9 9.3 100 55 0.0 2.9 12:30
  12:25 7.7 9.1 100 56 0.0 3.3 12:25
  12:20 7.7 9.2 100 57 0.0 2.9 12:20
  12:15 7.5 9.0 100 59 0.0 2.5 12:15
  12:10 7.1 8.0 100 62 0.0 2.9 12:10
  12:05 7.0 7.7 100 64 0.0 3.0 12:05
  12:00 6.9 7.5 100 64 0.0 2.5 12:00
22.11.2017 11:55 6.9 7.4 100 64 0.0 3.4 11:55
  11:50 6.8 7.3 100 64 0.0 3.6 11:50
  11:45 6.8 7.4 100 65 0.0 3.7 11:45
  11:40 7.0 7.6 100 64 0.0 3.6 11:40
  11:35 6.9 7.4 100 65 0.0 4.0 11:35
  11:30 6.6 7.0 100 65 0.0 4.3 11:30
  11:25 6.5 6.8 100 65 0.0 4.0 11:25
  11:20 6.6 6.8 100 65 0.0 3.7 11:20
  11:15 6.4 6.6 100 65 0.0 3.9 11:15
  11:10 6.4 6.5 100 65 0.0 4.4 11:10
  11:05 6.4 6.7 100 65 0.0 4.0 11:05
  11:00 6.5 6.7 100 65 0.0 4.3 11:00
  10:55 6.4 6.6 100 65 0.0 3.8 10:55
  10:50 6.4 6.8 100 65 0.0 3.7 10:50
  10:45 6.4 6.8 100 65 0.0 3.6 10:45
  10:40 6.5 6.9 100 65 0.0 3.7 10:40
  10:35 6.4 6.8 100 66 0.0 3.4 10:35
  10:30 6.2 6.4 100 67 0.0 3.4 10:30
  10:25 6.1 6.3 100 67 0.0 3.3 10:25
  10:20 6.1 6.2 100 67 0.0 3.0 10:20
  10:15 6.1 6.2 100 67 0.0 2.8 10:15
  10:10 6.0 6.1 100 67 0.0 3.4 10:10
  10:05 6.0 6.2 100 67 0.0 2.6 10:05
  10:00 5.9 6.0 100 67 0.0 4.1 10:00
22.11.2017 09:55 5.9 6.0 100 68 0.0 3.4 09:55
  09:50 5.8 5.8 100 69 0.0 4.0 09:50
  09:45 5.8 5.9 100 69 0.0 3.3 09:45
    Temp.
(2 m)
Temp.
(20 cm)
Luftfeuchte Blattnässe Nieder-
schlag
Wind  
[°C] [°C] [%] [%] [mm] [m/s]
 
  Ø 7.0 5.9 95 39 - 2.0 Ø
  Min. 4.6 2.9 - - - - Min.
  Max. 10.2 10.8 - - - - Max.
  - - - - 0.4 -
Quelle: Agrarmeteorologie Rheinland-Pfalz,
alle Angaben ohne Gewähr!
Zuletzt geändert: 23.11.17 - 10:00 Uhr